createdAt,value
2022-11-28T00:02:18.952Z,6.69
2022-11-28T00:07:20.564Z,6.63
2022-11-28T00:12:22.246Z,6.71
2022-11-28T00:17:23.590Z,6.64
2022-11-28T00:22:27.733Z,6.53
2022-11-28T00:27:29.072Z,6.53
2022-11-28T00:32:30.573Z,6.52
2022-11-28T00:37:32.048Z,6.37
2022-11-28T00:42:33.346Z,6.45
2022-11-28T00:47:34.688Z,6.35
2022-11-28T00:52:36.117Z,6.36
2022-11-28T00:57:37.719Z,6.41
2022-11-28T01:02:39.216Z,6.44
2022-11-28T01:07:42.449Z,6.44
2022-11-28T01:12:44.610Z,6.49
2022-11-28T01:17:45.930Z,6.52
2022-11-28T01:22:47.437Z,6.54
2022-11-28T01:27:48.869Z,6.57
2022-11-28T01:32:50.376Z,6.50
2022-11-28T01:37:51.794Z,6.55
2022-11-28T01:42:53.191Z,6.58
2022-11-28T01:47:59.801Z,6.42
2022-11-28T01:53:06.765Z,6.57
2022-11-28T01:58:09.474Z,6.50
2022-11-28T02:03:17.948Z,6.56
2022-11-28T02:08:19.544Z,6.56
2022-11-28T02:13:37.006Z,6.61
2022-11-28T02:19:07.598Z,6.62
2022-11-28T02:24:27.191Z,6.59
2022-11-28T02:29:53.638Z,6.64
2022-11-28T02:35:13.995Z,6.48
2022-11-28T02:40:30.624Z,6.52
2022-11-28T02:45:50.864Z,6.52
2022-11-28T02:51:01.081Z,6.49
2022-11-28T02:56:02.574Z,6.50
2022-11-28T03:01:06.115Z,6.52
2022-11-28T03:06:33.812Z,6.51
2022-11-28T03:12:12.879Z,6.54
2022-11-28T03:17:27.456Z,6.46
2022-11-28T03:22:38.322Z,6.42
2022-11-28T03:27:46.870Z,6.36
2022-11-28T03:32:53.280Z,6.32
2022-11-28T03:38:01.385Z,6.34
2022-11-28T03:43:11.662Z,6.33
2022-11-28T03:48:18.690Z,6.15
2022-11-28T03:53:38.853Z,6.22
2022-11-28T03:58:49.579Z,6.27
2022-11-28T04:04:10.091Z,6.33
2022-11-28T04:09:17.814Z,6.37
2022-11-28T04:14:25.762Z,6.37
2022-11-28T04:19:43.497Z,6.23
2022-11-28T04:25:09.539Z,6.32
2022-11-28T04:30:12.643Z,6.32
2022-11-28T04:35:22.815Z,6.36
2022-11-28T04:40:26.917Z,6.33
2022-11-28T04:45:34.380Z,6.32
2022-11-28T04:50:46.282Z,6.34
2022-11-28T04:56:01.496Z,6.29
2022-11-28T05:01:07.047Z,6.31
2022-11-28T05:06:09.286Z,6.33
2022-11-28T05:11:10.629Z,6.35
2022-11-28T05:16:12.986Z,6.30
2022-11-28T05:21:14.473Z,6.03
2022-11-28T05:26:18.902Z,6.26
2022-11-28T05:31:21.453Z,6.30
2022-11-28T05:36:23.881Z,6.32
2022-11-28T05:41:31.045Z,6.32
2022-11-28T05:46:32.725Z,6.28
2022-11-28T05:51:34.178Z,6.34
2022-11-28T05:56:40.918Z,6.34
2022-11-28T06:01:43.988Z,6.26
2022-11-28T06:06:45.525Z,6.23
2022-11-28T06:11:47.054Z,6.32
2022-11-28T06:16:48.531Z,6.18
2022-11-28T06:21:50.671Z,6.30
2022-11-28T06:26:52.009Z,6.23
2022-11-28T06:31:53.501Z,6.28
2022-11-28T06:36:55.132Z,6.30
2022-11-28T06:41:56.591Z,6.36
2022-11-28T06:46:58.067Z,6.26
2022-11-28T06:51:59.551Z,6.34
2022-11-28T06:57:01.069Z,6.32
2022-11-28T07:02:07.406Z,6.31
2022-11-28T07:07:13.668Z,6.30
2022-11-28T07:12:18.079Z,6.33
2022-11-28T07:17:19.465Z,6.25
2022-11-28T07:22:21.057Z,6.30
2022-11-28T07:27:22.413Z,6.30
2022-11-28T07:32:23.718Z,6.22
2022-11-28T07:37:25.062Z,6.29
2022-11-28T07:42:27.730Z,6.31
2022-11-28T07:47:29.124Z,6.39
2022-11-28T07:52:30.447Z,6.34
2022-11-28T07:57:31.878Z,6.25
2022-11-28T08:02:33.508Z,6.26
2022-11-28T08:07:34.964Z,6.33
2022-11-28T08:12:36.346Z,6.35
2022-11-28T08:17:37.670Z,6.41
2022-11-28T08:22:39.095Z,6.46
2022-11-28T08:27:40.445Z,6.52
2022-11-28T08:32:41.954Z,6.57
2022-11-28T08:37:43.290Z,6.61
2022-11-28T08:42:44.618Z,6.69
2022-11-28T08:47:45.917Z,6.73
2022-11-28T08:52:47.272Z,6.76
2022-11-28T08:57:48.785Z,6.83
2022-11-28T09:02:50.147Z,6.86
2022-11-28T09:07:54.466Z,6.86
2022-11-28T09:12:55.996Z,6.99
2022-11-28T09:17:57.288Z,6.90
2022-11-28T09:22:58.760Z,7.00
2022-11-28T09:28:01.209Z,6.99
2022-11-28T09:33:02.665Z,7.16
2022-11-28T09:38:04.134Z,7.23
2022-11-28T09:43:42.783Z,7.18
2022-11-28T09:48:54.375Z,7.19
2022-11-28T09:54:23.014Z,7.30
2022-11-28T09:59:27.335Z,7.32
2022-11-28T10:04:47.029Z,7.34
2022-11-28T10:10:17.057Z,7.36
2022-11-28T10:15:38.190Z,7.42
2022-11-28T10:20:43.253Z,7.40
2022-11-28T10:25:53.717Z,7.40
2022-11-28T10:31:20.763Z,7.58
2022-11-28T10:36:27.907Z,7.76
2022-11-28T10:41:38.475Z,7.73
2022-11-28T10:46:58.419Z,7.80
2022-11-28T10:52:18.584Z,7.85
2022-11-28T10:57:45.279Z,7.93
2022-11-28T11:02:52.316Z,7.97
2022-11-28T11:07:56.476Z,8.02
2022-11-28T11:13:01.098Z,8.09
2022-11-28T11:18:19.726Z,8.16
2022-11-28T11:23:22.990Z,8.17
2022-11-28T11:28:29.690Z,8.25
2022-11-28T11:33:37.016Z,8.24
2022-11-28T11:38:39.220Z,8.36
2022-11-28T11:43:42.949Z,8.39
2022-11-28T11:48:50.548Z,8.47
2022-11-28T11:54:05.287Z,8.53
2022-11-28T11:59:14.623Z,8.60
2022-11-28T12:04:44.669Z,8.62
2022-11-28T12:09:47.985Z,8.57
2022-11-28T12:14:50.700Z,8.52
2022-11-28T12:20:33.502Z,8.55
2022-11-28T12:26:12.910Z,8.59
2022-11-28T12:31:51.678Z,8.67
2022-11-28T12:37:14.326Z,8.71
2022-11-28T12:42:46.242Z,8.74
2022-11-28T12:48:06.335Z,8.77
2022-11-28T12:53:36.920Z,8.73
2022-11-28T12:58:59.774Z,8.68
2022-11-28T13:04:32.431Z,8.61
2022-11-28T13:09:37.172Z,8.63
2022-11-28T13:14:41.604Z,8.65
2022-11-28T13:19:55.164Z,8.57
2022-11-28T13:25:12.090Z,8.58
2022-11-28T13:30:20.274Z,8.53
2022-11-28T13:35:22.816Z,8.52
2022-11-28T13:40:48.150Z,8.46
2022-11-28T13:45:50.093Z,8.37
2022-11-28T13:51:19.835Z,8.34
2022-11-28T13:56:27.566Z,8.36
2022-11-28T14:01:42.736Z,8.39
2022-11-28T14:06:49.708Z,8.43
2022-11-28T14:12:09.585Z,8.40
2022-11-28T14:17:48.912Z,8.39
2022-11-28T14:23:19.936Z,8.38
2022-11-28T14:28:33.284Z,8.19
2022-11-28T14:33:42.614Z,8.34
2022-11-28T14:38:44.701Z,8.36
2022-11-28T14:43:48.766Z,8.35
2022-11-28T14:48:59.642Z,8.38
2022-11-28T14:54:01.613Z,8.38
2022-11-28T14:59:03.734Z,8.30
2022-11-28T15:04:31.151Z,8.42
2022-11-28T15:09:35.300Z,8.35
2022-11-28T15:14:37.813Z,8.30
2022-11-28T15:19:47.550Z,8.32
2022-11-28T15:24:52.310Z,8.36
2022-11-28T15:30:01.377Z,8.39
2022-11-28T15:35:10.938Z,8.38
2022-11-28T15:40:21.320Z,8.39
2022-11-28T15:45:28.688Z,8.40
2022-11-28T15:50:32.032Z,8.40
2022-11-28T15:55:34.036Z,8.28
2022-11-28T16:00:35.876Z,8.26
2022-11-28T16:05:39.481Z,8.33
2022-11-28T16:10:44.264Z,8.34
2022-11-28T16:15:49.882Z,8.36
2022-11-28T16:20:52.145Z,8.32
2022-11-28T16:26:06.615Z,8.38
2022-11-28T16:31:12.951Z,8.39
2022-11-28T16:36:26.509Z,8.40
2022-11-28T16:41:30.535Z,8.44
2022-11-28T16:46:38.614Z,8.41
2022-11-28T16:51:40.944Z,8.41
2022-11-28T16:56:44.503Z,8.45
2022-11-28T17:01:48.439Z,8.40
2022-11-28T17:06:51.205Z,8.44
2022-11-28T17:12:11.976Z,8.43
2022-11-28T17:17:14.831Z,8.27
2022-11-28T17:22:19.874Z,8.48
2022-11-28T17:27:21.215Z,8.52
2022-11-28T17:32:23.108Z,8.42
2022-11-28T17:37:24.469Z,8.45
2022-11-28T17:42:25.810Z,8.48
2022-11-28T17:47:27.390Z,8.42
2022-11-28T17:52:30.170Z,8.49
2022-11-28T17:57:31.673Z,8.53
2022-11-28T18:02:33.078Z,8.54
2022-11-28T18:07:34.757Z,8.55
2022-11-28T18:12:37.208Z,8.55
2022-11-28T18:17:38.590Z,8.55
2022-11-28T18:22:40.140Z,8.62
2022-11-28T18:27:41.525Z,8.65
2022-11-28T18:32:43.269Z,8.62
2022-11-28T18:37:44.806Z,8.64
2022-11-28T18:42:46.228Z,8.61
2022-11-28T18:47:48.286Z,8.60
2022-11-28T18:52:50.843Z,8.60
2022-11-28T18:57:52.413Z,8.59
2022-11-28T19:02:54.528Z,8.59
2022-11-28T19:07:57.314Z,8.59
2022-11-28T19:12:58.732Z,8.62
2022-11-28T19:18:00.084Z,8.62
2022-11-28T19:23:03.028Z,8.60
2022-11-28T19:28:04.720Z,8.58
2022-11-28T19:33:06.126Z,8.62
2022-11-28T19:38:07.692Z,8.54
2022-11-28T19:43:09.036Z,8.60
2022-11-28T19:48:10.679Z,8.61
2022-11-28T19:53:12.141Z,8.63
2022-11-28T19:58:13.651Z,8.58
2022-11-28T20:03:16.177Z,8.60
2022-11-28T20:08:17.528Z,8.47
2022-11-28T20:13:18.918Z,8.53
2022-11-28T20:18:20.223Z,8.64
2022-11-28T20:23:21.526Z,8.66
2022-11-28T20:28:23.049Z,8.62
2022-11-28T20:33:24.471Z,8.55
2022-11-28T20:38:25.857Z,8.59
2022-11-28T20:43:29.471Z,8.58
2022-11-28T20:48:31.019Z,8.55
2022-11-28T20:53:32.492Z,8.51
2022-11-28T20:58:33.955Z,8.47
2022-11-28T21:03:36.943Z,8.58
2022-11-28T21:08:39.095Z,8.54
2022-11-28T21:13:42.507Z,8.52
2022-11-28T21:18:45.051Z,8.45
2022-11-28T21:23:46.758Z,8.48
2022-11-28T21:28:50.845Z,8.48
2022-11-28T21:33:54.173Z,8.48
2022-11-28T21:38:57.613Z,8.40
2022-11-28T21:44:00.091Z,8.44
2022-11-28T21:49:01.835Z,8.39
2022-11-28T21:54:03.461Z,8.34
2022-11-28T21:59:04.928Z,8.31
2022-11-28T22:04:06.797Z,8.25
2022-11-28T22:14:36.367Z,8.27
2022-11-28T22:19:37.929Z,8.33
2022-11-28T22:24:39.732Z,8.34
2022-11-28T22:29:41.189Z,8.27
2022-11-28T22:34:43.760Z,8.19
2022-11-28T22:39:45.210Z,8.29
2022-11-28T22:44:47.101Z,8.24
2022-11-28T22:49:48.544Z,8.21
2022-11-28T22:54:50.656Z,8.17
2022-11-28T22:59:52.411Z,7.97
2022-11-28T23:04:53.977Z,8.16
2022-11-28T23:09:55.488Z,8.16
2022-11-28T23:14:57.048Z,8.17
2022-11-28T23:19:58.384Z,8.15
2022-11-28T23:25:00.255Z,8.14
2022-11-28T23:30:01.754Z,8.06
2022-11-28T23:35:03.295Z,8.12
2022-11-28T23:40:05.479Z,8.11
2022-11-28T23:45:07.595Z,8.11
2022-11-28T23:50:09.634Z,7.93
2022-11-28T23:55:10.962Z,8.06
